createdAt,value
2018-11-25T00:00:29.751Z,29.48
2018-11-25T00:02:32.042Z,32.93
2018-11-25T00:04:34.210Z,29.52
2018-11-25T00:06:36.343Z,31.95
2018-11-25T00:08:38.503Z,29.80
2018-11-25T00:10:40.643Z,31.05
2018-11-25T00:12:42.782Z,30.57
2018-11-25T00:14:45.095Z,30.97
2018-11-25T00:16:47.238Z,30.25
2018-11-25T00:18:49.374Z,29.72
2018-11-25T00:20:51.555Z,31.33
2018-11-25T00:22:53.691Z,31.68
2018-11-25T00:24:55.840Z,28.50
2018-11-25T00:26:58.006Z,29.57
2018-11-25T00:29:00.171Z,29.40
2018-11-25T00:31:09.445Z,31.23
2018-11-25T00:33:04.603Z,32.17
2018-11-25T00:35:07.535Z,29.07
2018-11-25T00:37:10.149Z,29.60
2018-11-25T00:39:12.301Z,27.40
2018-11-25T00:41:14.472Z,30.52
2018-11-25T00:43:16.699Z,29.65
2018-11-25T00:45:19.002Z,29.63
2018-11-25T00:47:21.195Z,29.80
2018-11-25T00:49:23.396Z,28.60
2018-11-25T00:51:25.522Z,29.98
2018-11-25T00:53:27.653Z,29.20
2018-11-25T00:55:29.792Z,31.45
2018-11-25T00:57:33.174Z,30.05
2018-11-25T00:59:35.523Z,30.20
2018-11-25T01:01:38.494Z,30.95
2018-11-25T01:03:40.614Z,28.12
2018-11-25T01:05:42.762Z,33.28
2018-11-25T01:07:45.306Z,29.25
2018-11-25T01:09:47.494Z,29.50
2018-11-25T01:11:49.678Z,30.23
2018-11-25T01:13:51.863Z,31.65
2018-11-25T01:15:53.990Z,30.00
2018-11-25T01:17:56.165Z,32.65
2018-11-25T01:19:58.345Z,30.55
2018-11-25T01:22:00.498Z,32.00
2018-11-25T01:24:02.686Z,28.30
2018-11-25T01:26:04.951Z,31.07
2018-11-25T01:28:07.134Z,30.27
2018-11-25T01:30:10.019Z,30.62
2018-11-25T01:32:12.167Z,30.32
2018-11-25T01:34:14.339Z,31.68
2018-11-25T01:36:16.788Z,30.82
2018-11-25T01:38:18.974Z,29.52
2018-11-25T01:40:21.111Z,33.53
2018-11-25T01:42:23.300Z,32.53
2018-11-25T01:44:25.449Z,31.80
2018-11-25T01:46:27.590Z,33.80
2018-11-25T01:48:29.753Z,32.45
2018-11-25T01:50:31.926Z,33.75
2018-11-25T01:52:34.051Z,32.35
2018-11-25T01:54:36.235Z,30.02
2018-11-25T01:56:38.391Z,33.33
2018-11-25T01:58:40.524Z,30.08
2018-11-25T02:00:42.748Z,32.38
2018-11-25T02:02:44.950Z,32.98
2018-11-25T02:04:47.104Z,32.23
2018-11-25T02:06:49.307Z,34.78
2018-11-25T02:08:51.671Z,34.30
2018-11-25T02:10:53.850Z,36.73
2018-11-25T02:12:56.071Z,33.55
2018-11-25T02:14:58.240Z,31.73
2018-11-25T02:17:00.414Z,32.33
2018-11-25T02:19:02.598Z,32.53
2018-11-25T02:21:04.772Z,31.10
2018-11-25T02:23:07.074Z,36.08
2018-11-25T02:25:09.266Z,34.48
2018-11-25T02:27:11.412Z,34.23
2018-11-25T02:29:13.973Z,31.93
2018-11-25T02:31:16.126Z,33.65
2018-11-25T02:33:18.338Z,34.13
2018-11-25T02:35:20.514Z,34.60
2018-11-25T02:37:22.680Z,34.20
2018-11-25T02:39:24.789Z,32.60
2018-11-25T02:41:26.936Z,34.83
2018-11-25T02:43:29.063Z,35.03
2018-11-25T02:45:31.195Z,32.48
2018-11-25T02:47:33.630Z,37.23
2018-11-25T02:49:35.814Z,33.85
2018-11-25T02:51:37.961Z,34.88
2018-11-25T02:53:40.143Z,34.83
2018-11-25T02:55:42.576Z,33.33
2018-11-25T02:57:44.726Z,31.27
2018-11-25T02:59:46.906Z,33.38
2018-11-25T03:01:49.116Z,34.78
2018-11-25T03:03:51.306Z,34.80
2018-11-25T03:05:53.523Z,31.48
2018-11-25T03:07:55.682Z,34.50
2018-11-25T03:09:57.815Z,33.60
2018-11-25T03:11:59.971Z,35.85
2018-11-25T03:14:02.207Z,32.70
2018-11-25T03:16:04.365Z,34.85
2018-11-25T03:18:06.545Z,33.02
2018-11-25T03:20:09.460Z,35.58
2018-11-25T03:22:11.627Z,34.30
2018-11-25T03:24:13.786Z,33.55
2018-11-25T03:26:15.944Z,33.30
2018-11-25T03:28:18.137Z,33.85
2018-11-25T03:30:20.543Z,35.52
2018-11-25T03:32:22.666Z,34.45
2018-11-25T03:34:24.803Z,35.05
2018-11-25T03:36:26.933Z,31.75
2018-11-25T03:38:29.066Z,34.98
2018-11-25T03:40:31.255Z,36.80
2018-11-25T03:42:33.382Z,35.35
2018-11-25T03:44:35.543Z,35.60
2018-11-25T03:46:37.719Z,34.10
2018-11-25T03:48:39.851Z,35.80
2018-11-25T03:50:41.991Z,36.80
2018-11-25T03:52:44.166Z,36.13
2018-11-25T03:54:46.311Z,34.15
2018-11-25T03:56:48.448Z,37.85
2018-11-25T03:58:50.608Z,34.70
2018-11-25T04:00:52.727Z,36.05
2018-11-25T04:02:54.868Z,33.80
2018-11-25T04:04:56.990Z,35.80
2018-11-25T04:06:59.169Z,35.00
2018-11-25T04:09:01.293Z,33.30
2018-11-25T04:11:03.430Z,33.73
2018-11-25T04:13:05.918Z,36.30
2018-11-25T04:15:09.361Z,32.17
2018-11-25T04:17:11.495Z,38.35
2018-11-25T04:19:14.059Z,35.63
2018-11-25T04:21:16.225Z,35.50
2018-11-25T04:23:18.381Z,35.40
2018-11-25T04:25:20.601Z,34.85
2018-11-25T04:27:22.746Z,35.70
2018-11-25T04:29:24.882Z,36.73
2018-11-25T04:31:27.038Z,38.23
2018-11-25T04:33:29.173Z,36.75
2018-11-25T04:35:31.292Z,36.77
2018-11-25T04:37:33.505Z,39.45
2018-11-25T04:39:35.644Z,35.70
2018-11-25T04:41:37.787Z,36.35
2018-11-25T04:43:39.923Z,35.33
2018-11-25T04:45:42.039Z,36.80
2018-11-25T04:47:44.578Z,37.63
2018-11-25T04:49:46.758Z,39.98
2018-11-25T04:51:48.907Z,35.55
2018-11-25T04:53:51.050Z,35.65
2018-11-25T04:55:53.231Z,37.53
2018-11-25T04:57:55.367Z,36.70
2018-11-25T04:59:57.554Z,37.30
2018-11-25T05:01:59.917Z,37.58
2018-11-25T05:04:02.082Z,37.28
2018-11-25T05:06:04.285Z,35.00
2018-11-25T05:08:06.550Z,34.73
2018-11-25T05:10:10.021Z,37.10
2018-11-25T05:12:12.155Z,35.00
2018-11-25T05:14:14.286Z,36.68
2018-11-25T05:16:16.457Z,35.70
2018-11-25T05:18:18.598Z,35.00
2018-11-25T05:20:20.786Z,39.00
2018-11-25T05:22:22.914Z,37.30
2018-11-25T05:24:25.035Z,37.10
2018-11-25T05:26:27.189Z,35.70
2018-11-25T05:28:29.330Z,34.13
2018-11-25T05:30:31.473Z,38.55
2018-11-25T05:32:33.671Z,37.00
2018-11-25T05:34:35.844Z,38.00
2018-11-25T05:36:37.989Z,37.23
2018-11-25T05:38:40.564Z,36.45
2018-11-25T05:40:42.706Z,35.92
2018-11-25T05:42:44.850Z,37.23
2018-11-25T05:44:47.018Z,36.45
2018-11-25T05:46:49.179Z,35.80
2018-11-25T05:48:51.318Z,39.20
2018-11-25T05:50:53.647Z,36.75
2018-11-25T05:52:55.805Z,37.83
2018-11-25T05:54:57.943Z,38.38
2018-11-25T05:57:00.127Z,36.48
2018-11-25T05:59:02.286Z,36.77
2018-11-25T06:01:04.480Z,36.23
2018-11-25T06:03:06.647Z,39.50
2018-11-25T06:05:08.815Z,37.23
2018-11-25T06:07:10.975Z,37.70
2018-11-25T06:09:13.182Z,36.42
2018-11-25T06:11:15.322Z,35.92
2018-11-25T06:13:17.670Z,40.28
2018-11-25T06:15:19.854Z,37.48
2018-11-25T06:17:21.998Z,35.83
2018-11-25T06:19:24.134Z,37.13
2018-11-25T06:21:26.329Z,38.05
2018-11-25T06:23:28.478Z,37.98
2018-11-25T06:25:30.625Z,34.05
2018-11-25T06:27:38.075Z,36.65
2018-11-25T06:29:34.947Z,35.40
2018-11-25T06:31:37.093Z,41.08
2018-11-25T06:33:39.251Z,38.08
2018-11-25T06:35:41.388Z,37.45
2018-11-25T06:37:43.543Z,37.30
2018-11-25T06:39:45.678Z,37.17
2018-11-25T06:41:47.811Z,35.30
2018-11-25T06:43:50.015Z,36.53
2018-11-25T06:45:52.143Z,37.20
2018-11-25T06:47:54.759Z,40.12
2018-11-25T06:49:57.088Z,37.53
2018-11-25T06:51:59.209Z,37.50
2018-11-25T06:54:01.352Z,37.85
2018-11-25T06:56:03.802Z,36.05
2018-11-25T06:58:05.955Z,36.93
2018-11-25T07:00:11.878Z,39.75
2018-11-25T07:02:14.056Z,38.40
2018-11-25T07:04:16.202Z,37.95
2018-11-25T07:06:18.366Z,38.30
2018-11-25T07:08:20.603Z,38.00
2018-11-25T07:10:22.802Z,38.17
2018-11-25T07:12:24.950Z,39.65
2018-11-25T07:14:27.112Z,36.90
2018-11-25T07:16:29.330Z,37.00
2018-11-25T07:18:31.490Z,37.67
2018-11-25T07:20:33.946Z,35.25
2018-11-25T07:22:36.098Z,38.00
2018-11-25T07:24:38.252Z,39.42
2018-11-25T07:26:40.398Z,38.33
2018-11-25T07:28:42.532Z,38.88
2018-11-25T07:30:44.968Z,37.45
2018-11-25T07:32:47.114Z,39.40
2018-11-25T07:34:49.262Z,42.40
2018-11-25T07:36:51.434Z,42.17
2018-11-25T07:38:53.694Z,37.53
2018-11-25T07:40:55.844Z,39.25
2018-11-25T07:42:58.012Z,38.38
2018-11-25T07:45:00.156Z,41.83
2018-11-25T07:47:02.303Z,39.40
2018-11-25T07:49:04.624Z,41.42
2018-11-25T07:51:06.762Z,40.08
2018-11-25T07:53:08.912Z,39.67
2018-11-25T07:55:17.938Z,39.35
2018-11-25T07:57:20.096Z,39.78
2018-11-25T07:59:22.251Z,38.70
2018-11-25T08:01:24.425Z,41.55
2018-11-25T08:03:26.579Z,39.67
2018-11-25T08:05:28.741Z,42.90
2018-11-25T08:07:30.905Z,43.55
2018-11-25T08:09:33.076Z,44.63
2018-11-25T08:11:35.254Z,39.83
2018-11-25T08:13:37.483Z,45.12
2018-11-25T08:15:39.643Z,42.70
2018-11-25T08:17:41.803Z,43.17
2018-11-25T08:19:43.992Z,42.55
2018-11-25T08:21:46.190Z,44.03
2018-11-25T08:23:48.330Z,41.35
2018-11-25T08:25:50.492Z,44.88
2018-11-25T08:27:52.648Z,42.58
2018-11-25T08:29:54.786Z,40.10
2018-11-25T08:31:56.963Z,42.20
2018-11-25T08:33:59.100Z,43.52
2018-11-25T08:36:01.310Z,41.18
2018-11-25T08:38:03.838Z,40.95
2018-11-25T08:40:07.304Z,41.85
2018-11-25T08:42:09.447Z,41.63
2018-11-25T08:44:11.675Z,40.80
2018-11-25T08:46:13.834Z,42.40
2018-11-25T08:48:16.622Z,42.05
2018-11-25T08:50:18.950Z,44.15
2018-11-25T08:52:21.091Z,41.30
2018-11-25T08:54:23.235Z,37.88
2018-11-25T08:56:25.428Z,38.50
2018-11-25T08:58:27.588Z,38.23
2018-11-25T09:00:29.865Z,39.95
2018-11-25T09:02:32.074Z,38.92
2018-11-25T09:04:34.242Z,39.83
2018-11-25T09:06:36.386Z,37.40
2018-11-25T09:08:39.057Z,39.25
2018-11-25T09:10:41.282Z,35.43
2018-11-25T09:12:43.927Z,38.45
2018-11-25T09:14:46.080Z,36.15
2018-11-25T09:16:48.231Z,35.43
2018-11-25T09:18:50.442Z,36.20
2018-11-25T09:20:52.586Z,37.63
2018-11-25T09:22:54.769Z,36.42
2018-11-25T09:24:56.874Z,36.10
2018-11-25T09:26:59.022Z,36.98
2018-11-25T09:29:01.207Z,36.40
2018-11-25T09:31:03.484Z,34.92
2018-11-25T09:33:05.631Z,35.17
2018-11-25T09:35:07.774Z,39.27
2018-11-25T09:37:10.258Z,37.05
2018-11-25T09:39:12.499Z,34.63
2018-11-25T09:41:14.645Z,42.08
2018-11-25T09:43:16.774Z,38.53
2018-11-25T09:45:19.169Z,38.83
2018-11-25T09:47:21.317Z,42.98
2018-11-25T09:49:23.558Z,39.30
2018-11-25T09:51:25.737Z,34.60
2018-11-25T09:53:27.878Z,39.30
2018-11-25T09:55:30.289Z,32.95
2018-11-25T09:57:32.489Z,36.73
2018-11-25T09:59:34.619Z,32.83
2018-11-25T10:01:36.771Z,36.30
2018-11-25T10:03:39.131Z,29.72
2018-11-25T10:05:41.284Z,30.50
2018-11-25T10:07:43.472Z,28.57
2018-11-25T10:09:45.979Z,28.95
2018-11-25T10:11:48.355Z,27.45
2018-11-25T10:13:50.600Z,30.77
2018-11-25T10:15:52.870Z,28.87
2018-11-25T10:17:59.730Z,29.48
2018-11-25T10:19:57.170Z,31.37
2018-11-25T10:21:59.451Z,30.57
2018-11-25T10:24:01.592Z,28.30
2018-11-25T10:26:03.753Z,29.87
2018-11-25T10:28:05.886Z,30.02
2018-11-25T10:30:09.768Z,31.02
2018-11-25T10:32:11.996Z,29.72
2018-11-25T10:34:14.143Z,28.40
2018-11-25T10:36:16.298Z,30.68
2018-11-25T10:38:18.598Z,29.27
2018-11-25T10:40:21.333Z,29.85
2018-11-25T10:42:23.798Z,29.77
2018-11-25T10:44:25.971Z,28.00
2018-11-25T10:46:28.120Z,29.25
2018-11-25T10:48:30.287Z,26.62
2018-11-25T10:50:32.514Z,28.85
2018-11-25T10:52:34.658Z,28.77
2018-11-25T10:54:36.810Z,28.00
2018-11-25T10:56:39.238Z,28.02
2018-11-25T10:58:41.506Z,27.85
2018-11-25T11:00:49.592Z,29.70
2018-11-25T11:02:58.931Z,26.42
2018-11-25T11:07:30.549Z,25.82
2018-11-25T11:09:34.323Z,25.50
2018-11-25T11:11:37.066Z,26.65
2018-11-25T11:13:39.868Z,26.68
2018-11-25T11:15:42.296Z,25.68
2018-11-25T11:17:44.833Z,26.70
2018-11-25T11:19:47.214Z,25.90
2018-11-25T11:21:49.439Z,25.40
2018-11-25T11:23:51.846Z,27.00
2018-11-25T11:25:54.174Z,26.97
2018-11-25T11:27:56.655Z,27.35
2018-11-25T11:29:59.376Z,27.07
2018-11-25T11:32:01.742Z,26.82
2018-11-25T11:34:04.047Z,27.85
2018-11-25T11:36:06.233Z,29.48
2018-11-25T11:38:08.427Z,27.30
2018-11-25T11:40:11.136Z,27.45
2018-11-25T11:42:13.506Z,27.75
2018-11-25T11:44:15.785Z,28.20
2018-11-25T11:46:17.956Z,28.47
2018-11-25T11:48:20.179Z,27.65
2018-11-25T11:50:22.539Z,28.83
2018-11-25T11:52:24.775Z,29.57
2018-11-25T11:54:27.060Z,29.50
2018-11-25T11:56:29.307Z,29.37
2018-11-25T11:58:31.515Z,28.85
2018-11-25T12:00:33.884Z,30.08
2018-11-25T12:02:36.097Z,29.20
2018-11-25T12:04:38.480Z,28.50
2018-11-25T12:06:40.690Z,27.93
2018-11-25T12:08:42.993Z,30.57
2018-11-25T12:10:45.331Z,32.90
2018-11-25T12:12:57.592Z,37.67
2018-11-25T12:15:30.010Z,45.10
2018-11-25T12:44:45.474Z,36.88
2018-11-25T12:47:11.797Z,35.83
2018-11-25T12:51:29.703Z,39.83
2018-11-25T12:53:35.973Z,39.40
2018-11-25T12:56:01.049Z,45.45
2018-11-25T12:58:03.846Z,41.70
2018-11-25T13:00:15.285Z,41.73
2018-11-25T13:02:24.832Z,41.68
2018-11-25T13:04:27.929Z,42.88
2018-11-25T13:06:32.166Z,42.67
2018-11-25T13:44:29.865Z,35.40
2018-11-25T13:46:32.158Z,36.83
2018-11-25T13:48:35.971Z,39.70
2018-11-25T13:50:39.084Z,38.67
2018-11-25T13:52:41.931Z,38.15
2018-11-25T13:54:49.795Z,39.70
2018-11-25T13:56:59.113Z,38.33
2018-11-25T14:01:39.649Z,38.67
2018-11-25T14:04:04.564Z,36.30
2018-11-25T14:06:12.047Z,36.08
2018-11-25T14:08:18.614Z,38.58
2018-11-25T14:13:02.759Z,34.38
2018-11-25T14:15:06.489Z,36.35
2018-11-25T14:17:08.947Z,36.83
2018-11-25T14:19:11.134Z,36.40
2018-11-25T14:21:13.352Z,35.75
2018-11-25T14:23:15.789Z,35.13
2018-11-25T14:25:18.568Z,36.77
2018-11-25T14:27:20.756Z,35.43
2018-11-25T14:29:22.936Z,35.38
2018-11-25T14:31:25.161Z,36.25
2018-11-25T14:33:27.426Z,35.95
2018-11-25T14:35:29.620Z,33.35
2018-11-25T14:37:31.784Z,35.35
2018-11-25T14:39:33.979Z,36.00
2018-11-25T14:41:36.507Z,36.03
2018-11-25T14:43:39.536Z,34.08
2018-11-25T14:45:42.515Z,33.42
2018-11-25T14:47:44.737Z,32.65
2018-11-25T14:49:46.979Z,34.33
2018-11-25T14:51:49.188Z,35.23
2018-11-25T14:53:52.681Z,34.10
2018-11-25T14:55:55.443Z,35.08
2018-11-25T14:57:57.740Z,35.10
2018-11-25T14:59:59.918Z,32.80
2018-11-25T15:02:02.222Z,35.58
2018-11-25T15:04:05.073Z,34.27
2018-11-25T15:06:07.330Z,33.35
2018-11-25T15:08:11.401Z,36.08
2018-11-25T15:10:14.103Z,35.30
2018-11-25T15:12:16.335Z,34.88
2018-11-25T15:14:18.557Z,35.95
2018-11-25T15:16:20.826Z,33.10
2018-11-25T15:18:23.015Z,35.00
2018-11-25T15:20:25.161Z,33.28
2018-11-25T15:22:27.378Z,36.00
2018-11-25T22:06:15.116Z,20.55
2018-11-25T22:08:17.298Z,19.48
2018-11-25T22:10:20.253Z,18.37
2018-11-25T22:12:22.655Z,18.50
2018-11-25T22:14:24.991Z,19.02
2018-11-25T22:16:27.158Z,19.98
2018-11-25T22:18:29.565Z,22.07
2018-11-25T22:20:31.694Z,18.52
2018-11-25T22:22:33.826Z,22.22
2018-11-25T22:24:36.078Z,20.95
2018-11-25T22:26:38.248Z,21.57
2018-11-25T22:28:40.390Z,21.85
2018-11-25T22:30:42.603Z,21.23
2018-11-25T22:32:44.753Z,20.40
2018-11-25T22:34:46.937Z,20.82
2018-11-25T22:36:49.094Z,20.90
2018-11-25T22:38:51.266Z,20.32
2018-11-25T22:40:53.583Z,21.42
2018-11-25T22:42:55.957Z,20.88
2018-11-25T22:44:58.722Z,20.80
2018-11-25T22:47:00.894Z,21.25
2018-11-25T22:49:03.063Z,20.32
2018-11-25T22:51:05.223Z,20.32
2018-11-25T22:53:08.024Z,18.77
2018-11-25T22:55:11.078Z,20.77
2018-11-25T22:57:13.263Z,19.45
2018-11-25T22:59:15.515Z,20.70
2018-11-25T23:01:17.682Z,18.55
2018-11-25T23:03:20.176Z,20.72
2018-11-25T23:05:27.975Z,18.27
2018-11-25T23:07:30.141Z,18.20
2018-11-25T23:09:32.308Z,18.05
2018-11-25T23:11:34.584Z,17.70
2018-11-25T23:13:36.720Z,16.60
2018-11-25T23:15:39.229Z,18.67
2018-11-25T23:17:41.399Z,16.67
2018-11-25T23:19:43.525Z,15.25
2018-11-25T23:21:45.835Z,16.20
2018-11-25T23:23:47.983Z,17.00
2018-11-25T23:25:50.135Z,15.78
2018-11-25T23:27:52.444Z,17.00
2018-11-25T23:29:54.602Z,16.07
2018-11-25T23:31:56.760Z,15.10
2018-11-25T23:33:59.074Z,16.07
2018-11-25T23:36:01.281Z,16.65
2018-11-25T23:38:04.132Z,14.38
2018-11-25T23:40:07.110Z,14.10
2018-11-25T23:42:09.363Z,14.58
2018-11-25T23:44:11.561Z,13.40
2018-11-25T23:46:13.778Z,14.30
2018-11-25T23:48:15.962Z,14.60
2018-11-25T23:50:18.111Z,14.60
2018-11-25T23:52:20.265Z,14.53
2018-11-25T23:54:22.450Z,14.20
2018-11-25T23:56:24.570Z,13.88
2018-11-25T23:58:26.742Z,13.62
